createdAt,value
2018-07-31T00:00:57.836Z,76.08
2018-07-31T00:03:27.954Z,76.36
2018-07-31T00:05:57.703Z,76.36
2018-07-31T00:08:26.538Z,76.46
2018-07-31T00:10:55.403Z,76.54
2018-07-31T00:13:24.748Z,76.54
2018-07-31T00:15:54.718Z,76.68
2018-07-31T00:18:23.809Z,76.43
2018-07-31T00:20:53.919Z,76.69
2018-07-31T00:23:22.693Z,76.55
2018-07-31T00:25:51.416Z,76.88
2018-07-31T00:28:20.188Z,76.95
2018-07-31T00:30:49.178Z,76.57
2018-07-31T00:33:18.390Z,76.67
2018-07-31T00:35:47.943Z,76.94
2018-07-31T00:38:18.728Z,76.64
2018-07-31T00:40:47.454Z,76.81
2018-07-31T00:43:16.194Z,76.97
2018-07-31T00:45:45.066Z,76.87
2018-07-31T00:48:14.360Z,76.77
2018-07-31T00:50:45.365Z,76.92
2018-07-31T00:53:14.796Z,77.02
2018-07-31T00:55:46.674Z,77.17
2018-07-31T00:58:15.358Z,76.90
2018-07-31T01:00:43.983Z,77.04
2018-07-31T01:03:12.830Z,76.95
2018-07-31T01:05:42.496Z,77.28
2018-07-31T01:08:11.919Z,77.21
2018-07-31T01:10:41.183Z,77.11
2018-07-31T01:13:10.265Z,77.09
2018-07-31T01:15:39.275Z,77.42
2018-07-31T01:18:08.198Z,77.43
2018-07-31T01:20:37.158Z,77.46
2018-07-31T01:23:12.226Z,77.58
2018-07-31T01:25:41.310Z,77.60
2018-07-31T01:28:10.373Z,77.76
2018-07-31T01:30:39.245Z,77.77
2018-07-31T01:33:08.049Z,77.87
2018-07-31T01:35:36.855Z,77.78
2018-07-31T01:38:05.934Z,77.89
2018-07-31T01:40:35.082Z,78.26
2018-07-31T01:43:04.317Z,78.14
2018-07-31T01:45:33.488Z,78.33
2018-07-31T01:48:02.201Z,78.21
2018-07-31T01:50:30.910Z,78.26
2018-07-31T01:52:59.739Z,78.28
2018-07-31T01:55:28.725Z,78.38
2018-07-31T01:57:57.763Z,78.58
2018-07-31T02:00:26.912Z,78.37
2018-07-31T02:02:56.000Z,78.45
2018-07-31T02:05:24.899Z,78.49
2018-07-31T02:07:53.730Z,78.50
2018-07-31T02:10:22.529Z,78.50
2018-07-31T02:12:51.676Z,78.50
2018-07-31T02:15:22.534Z,78.49
2018-07-31T02:17:51.860Z,78.49
2018-07-31T02:20:21.158Z,78.67
2018-07-31T02:22:49.980Z,78.56
2018-07-31T02:25:18.836Z,78.64
2018-07-31T02:27:47.875Z,78.70
2018-07-31T02:30:23.531Z,78.67
2018-07-31T02:32:52.943Z,78.89
2018-07-31T02:35:21.977Z,78.73
2018-07-31T02:37:50.955Z,78.85
2018-07-31T02:40:19.644Z,78.93
2018-07-31T02:42:48.481Z,78.90
2018-07-31T02:45:17.387Z,79.08
2018-07-31T02:47:46.500Z,79.18
2018-07-31T02:50:15.677Z,79.45
2018-07-31T02:52:44.911Z,79.52
2018-07-31T02:55:15.054Z,79.72
2018-07-31T02:57:43.798Z,79.73
2018-07-31T03:00:12.678Z,79.74
2018-07-31T03:02:41.546Z,80.03
2018-07-31T03:05:12.107Z,79.83
2018-07-31T03:07:41.262Z,79.93
2018-07-31T03:10:11.267Z,79.95
2018-07-31T03:12:40.214Z,80.04
2018-07-31T03:15:10.555Z,80.16
2018-07-31T03:17:39.295Z,80.17
2018-07-31T03:20:08.734Z,80.00
2018-07-31T03:22:37.951Z,80.13
2018-07-31T03:25:07.087Z,80.15
2018-07-31T03:27:36.139Z,80.45
2018-07-31T03:30:05.461Z,80.45
2018-07-31T03:32:34.309Z,80.57
2018-07-31T03:35:03.054Z,80.57
2018-07-31T03:37:32.202Z,80.61
2018-07-31T03:40:01.309Z,80.84
2018-07-31T03:42:30.416Z,80.94
2018-07-31T03:44:59.420Z,80.78
2018-07-31T03:47:28.137Z,80.99
2018-07-31T03:49:56.912Z,81.29
2018-07-31T03:52:25.844Z,81.23
2018-07-31T03:54:54.883Z,81.23
2018-07-31T03:57:23.950Z,81.21
2018-07-31T03:59:52.902Z,81.60
2018-07-31T04:02:21.915Z,81.65
2018-07-31T04:04:50.666Z,81.59
2018-07-31T04:07:19.413Z,81.56
2018-07-31T04:09:48.147Z,81.73
2018-07-31T04:12:17.033Z,81.68
2018-07-31T04:14:45.986Z,81.77
2018-07-31T04:17:15.233Z,81.74
2018-07-31T04:40:55.378Z,82.56
2018-07-31T04:43:24.201Z,82.86
2018-07-31T04:45:52.819Z,82.81
2018-07-31T04:59:31.501Z,83.34
2018-07-31T05:02:00.163Z,83.38
2018-07-31T05:13:00.509Z,83.48
2018-07-31T05:15:29.155Z,83.68
2018-07-31T05:17:57.862Z,83.44
2018-07-31T05:20:26.669Z,83.47
2018-07-31T05:30:59.310Z,83.50
2018-07-31T05:33:27.960Z,83.60
2018-07-31T05:35:56.731Z,83.66
2018-07-31T05:48:48.497Z,83.94
2018-07-31T05:51:17.254Z,83.87
2018-07-31T05:53:46.160Z,84.25
2018-07-31T06:04:15.734Z,84.42
2018-07-31T06:06:44.396Z,84.83
2018-07-31T06:09:13.017Z,84.83
2018-07-31T06:11:41.721Z,84.75
2018-07-31T06:21:00.977Z,85.03
2018-07-31T06:23:29.786Z,84.96
2018-07-31T06:25:58.519Z,84.82
2018-07-31T06:28:27.459Z,84.96
2018-07-31T06:30:56.866Z,84.68
2018-07-31T06:33:26.007Z,84.51
2018-07-31T06:35:55.204Z,84.62
2018-07-31T06:38:23.974Z,84.62
2018-07-31T06:40:52.781Z,84.45
2018-07-31T06:43:21.611Z,84.19
2018-07-31T06:45:50.566Z,84.12
2018-07-31T07:03:43.215Z,84.07
2018-07-31T07:06:14.280Z,83.60
2018-07-31T07:08:43.555Z,83.41
2018-07-31T07:11:12.768Z,83.52
2018-07-31T07:13:41.630Z,83.63
2018-07-31T07:16:10.513Z,83.35
2018-07-31T07:18:39.550Z,83.37
2018-07-31T07:21:10.970Z,83.23
2018-07-31T07:23:41.400Z,83.25
2018-07-31T07:26:11.139Z,83.04
2018-07-31T07:28:43.491Z,82.92
2018-07-31T07:31:12.330Z,82.77
2018-07-31T07:33:41.074Z,82.70
2018-07-31T07:36:09.934Z,82.55
2018-07-31T07:38:39.770Z,82.63
2018-07-31T07:41:15.500Z,82.39
2018-07-31T07:43:51.172Z,82.09
2018-07-31T07:46:20.980Z,81.79
2018-07-31T07:48:49.679Z,80.84
2018-07-31T07:51:18.538Z,80.49
2018-07-31T07:53:47.424Z,80.72
2018-07-31T07:56:19.644Z,80.63
2018-07-31T07:58:52.531Z,80.80
2018-07-31T08:01:26.849Z,80.63
2018-07-31T08:03:57.919Z,80.43
2018-07-31T08:06:26.818Z,80.58
2018-07-31T08:08:55.637Z,80.35
2018-07-31T08:26:45.679Z,79.30
2018-07-31T08:38:34.825Z,76.76
2018-07-31T08:41:11.761Z,76.41
2018-07-31T08:43:46.105Z,75.97
2018-07-31T08:58:39.239Z,72.81
2018-07-31T09:14:09.198Z,71.48
2018-07-31T09:16:38.579Z,71.61
2018-07-31T09:19:07.722Z,71.48
2018-07-31T09:30:51.567Z,67.91
2018-07-31T09:33:21.243Z,68.73
2018-07-31T09:35:50.951Z,68.37
2018-07-31T09:47:30.749Z,68.16
2018-07-31T09:49:59.870Z,68.27
2018-07-31T09:52:29.082Z,67.30
2018-07-31T10:04:05.908Z,67.05
2018-07-31T10:06:35.027Z,66.78
2018-07-31T10:09:05.444Z,66.10
2018-07-31T10:21:00.807Z,66.69
2018-07-31T10:23:30.329Z,64.97
2018-07-31T10:25:59.534Z,64.77
2018-07-31T10:38:06.031Z,63.63
2018-07-31T10:40:35.259Z,62.72
2018-07-31T10:43:04.193Z,62.24
2018-07-31T10:57:46.959Z,63.41
2018-07-31T11:00:16.356Z,63.83
2018-07-31T11:15:05.573Z,60.93
2018-07-31T11:17:35.651Z,60.82
2018-07-31T11:32:15.818Z,59.86
2018-07-31T11:34:44.895Z,60.17
2018-07-31T11:49:22.879Z,59.96
2018-07-31T11:51:52.425Z,59.65
2018-07-31T12:06:32.313Z,58.81
2018-07-31T12:09:01.599Z,59.18
2018-07-31T12:23:31.134Z,57.58
2018-07-31T12:26:00.900Z,57.26
2018-07-31T12:40:40.584Z,56.30
2018-07-31T12:43:09.904Z,55.29
2018-07-31T12:57:39.168Z,55.25
2018-07-31T13:00:08.639Z,55.40
2018-07-31T13:14:53.126Z,54.21
2018-07-31T13:17:22.345Z,54.86
2018-07-31T13:32:09.200Z,55.80
2018-07-31T13:34:39.195Z,54.84
2018-07-31T13:49:12.505Z,53.75
2018-07-31T13:51:43.347Z,53.36
2018-07-31T14:06:20.404Z,52.13
2018-07-31T14:08:50.219Z,52.57
2018-07-31T14:22:58.451Z,53.18
2018-07-31T14:25:27.563Z,52.66
2018-07-31T14:27:57.042Z,52.88
2018-07-31T14:39:34.171Z,52.06
2018-07-31T14:42:03.319Z,52.49
2018-07-31T14:44:32.692Z,52.53
2018-07-31T14:56:08.366Z,49.49
2018-07-31T14:58:37.331Z,47.79
2018-07-31T15:01:06.392Z,47.73
2018-07-31T15:12:38.446Z,50.84
2018-07-31T15:15:08.754Z,51.37
2018-07-31T15:17:37.945Z,51.59
2018-07-31T15:32:15.764Z,52.54
2018-07-31T15:34:44.822Z,51.49
2018-07-31T16:37:57.174Z,43.99
2018-07-31T16:43:35.464Z,43.54
2018-07-31T16:55:34.441Z,43.75
2018-07-31T16:58:08.023Z,43.77
2018-07-31T17:00:37.450Z,43.07
2018-07-31T17:12:17.798Z,46.37
2018-07-31T17:14:46.807Z,45.83
2018-07-31T17:17:15.828Z,45.45
2018-07-31T17:32:05.939Z,46.76
2018-07-31T17:34:41.243Z,46.25
2018-07-31T17:46:18.306Z,46.74
2018-07-31T17:48:47.318Z,45.79
2018-07-31T17:51:16.370Z,46.12
2018-07-31T18:03:15.906Z,46.16
2018-07-31T18:08:47.743Z,45.70
2018-07-31T18:20:24.108Z,45.40
2018-07-31T18:22:53.083Z,44.55
2018-07-31T18:25:22.062Z,44.74
2018-07-31T18:27:56.920Z,44.36
2018-07-31T18:39:34.347Z,46.39
2018-07-31T18:42:03.272Z,47.87
2018-07-31T18:44:32.973Z,47.55
2018-07-31T18:56:11.474Z,51.47
2018-07-31T18:58:40.614Z,51.72
2018-07-31T19:01:09.656Z,53.41
2018-07-31T19:12:48.067Z,55.19
2018-07-31T19:15:17.527Z,54.93
2018-07-31T19:17:47.681Z,55.48
2018-07-31T19:29:23.906Z,58.25
2018-07-31T19:31:52.900Z,57.73
2018-07-31T19:34:21.905Z,58.58
2018-07-31T19:45:58.675Z,60.71
2018-07-31T19:48:27.671Z,60.98
2018-07-31T19:50:56.686Z,60.84
2018-07-31T20:02:43.038Z,61.12
2018-07-31T20:05:12.127Z,61.89
2018-07-31T20:07:41.132Z,62.25
2018-07-31T20:22:12.826Z,65.30
2018-07-31T20:24:41.866Z,65.52
2018-07-31T20:39:18.407Z,66.24
2018-07-31T20:41:49.818Z,66.23
2018-07-31T20:56:57.309Z,66.17
2018-07-31T20:59:33.769Z,66.43
2018-07-31T21:15:27.214Z,66.94
2018-07-31T21:30:42.421Z,67.32
2018-07-31T21:33:25.627Z,67.57
2018-07-31T21:51:18.915Z,67.96
2018-07-31T22:02:56.876Z,68.36
2018-07-31T22:05:58.245Z,68.28
2018-07-31T22:56:16.815Z,69.57
2018-07-31T22:58:52.741Z,69.50
2018-07-31T23:13:53.713Z,69.82
2018-07-31T23:16:48.863Z,70.04
2018-07-31T23:28:40.209Z,71.01
2018-07-31T23:31:52.144Z,71.12
2018-07-31T23:46:40.945Z,71.73
2018-07-31T23:49:31.361Z,71.83
2018-07-31T23:52:01.470Z,72.03
